createdAt,value
2018-11-06T00:01:52.906Z,36.33
2018-11-06T00:04:25.418Z,35.70
2018-11-06T00:06:53.724Z,37.57
2018-11-06T00:09:22.236Z,36.93
2018-11-06T00:11:50.593Z,36.63
2018-11-06T00:14:18.911Z,36.67
2018-11-06T00:16:47.239Z,34.83
2018-11-06T00:19:15.537Z,35.77
2018-11-06T00:21:43.860Z,35.57
2018-11-06T00:24:12.230Z,36.63
2018-11-06T00:26:40.564Z,35.63
2018-11-06T00:29:08.943Z,36.70
2018-11-06T00:31:37.494Z,38.17
2018-11-06T00:34:05.895Z,36.17
2018-11-06T00:36:34.384Z,35.60
2018-11-06T00:39:02.808Z,35.30
2018-11-06T00:41:31.092Z,36.17
2018-11-06T00:43:59.408Z,35.73
2018-11-06T00:46:27.780Z,36.17
2018-11-06T00:48:56.068Z,37.03
2018-11-06T00:51:24.376Z,36.00
2018-11-06T00:53:52.755Z,37.23
2018-11-06T00:56:21.087Z,35.30
2018-11-06T00:58:49.636Z,35.80
2018-11-06T01:01:17.999Z,37.43
2018-11-06T01:04:20.593Z,36.13
2018-11-06T01:06:48.878Z,36.37
2018-11-06T01:09:18.094Z,36.67
2018-11-06T01:11:46.376Z,36.63
2018-11-06T01:14:14.720Z,35.73
2018-11-06T01:16:43.097Z,36.93
2018-11-06T01:19:12.254Z,36.23
2018-11-06T01:21:40.592Z,36.93
2018-11-06T01:24:09.702Z,36.37
2018-11-06T01:26:38.028Z,37.37
2018-11-06T01:29:06.814Z,37.13
2018-11-06T01:31:35.131Z,36.03
2018-11-06T01:34:03.805Z,36.33
2018-11-06T01:36:32.159Z,35.47
2018-11-06T01:39:00.579Z,35.97
2018-11-06T01:41:28.971Z,35.30
2018-11-06T01:43:57.288Z,36.03
2018-11-06T01:46:25.603Z,35.23
2018-11-06T01:48:54.241Z,37.53
2018-11-06T01:51:22.619Z,35.67
2018-11-06T01:53:50.978Z,36.23
2018-11-06T01:56:19.303Z,33.40
2018-11-06T01:58:47.623Z,35.70
2018-11-06T02:01:15.963Z,36.47
2018-11-06T02:03:44.402Z,35.07
2018-11-06T02:06:12.777Z,34.43
2018-11-06T02:08:41.373Z,36.33
2018-11-06T02:11:09.855Z,36.30
2018-11-06T02:13:38.210Z,35.70
2018-11-06T02:16:07.077Z,35.10
2018-11-06T02:18:35.440Z,35.17
2018-11-06T02:21:04.150Z,35.10
2018-11-06T02:23:32.642Z,34.73
2018-11-06T02:26:00.967Z,36.73
2018-11-06T02:28:29.320Z,36.30
2018-11-06T02:30:57.672Z,35.33
2018-11-06T02:33:26.070Z,35.33
2018-11-06T02:35:54.394Z,34.87
2018-11-06T02:38:22.759Z,37.97
2018-11-06T02:40:51.109Z,35.60
2018-11-06T02:43:19.461Z,34.50
2018-11-06T02:45:47.813Z,34.73
2018-11-06T02:48:16.203Z,34.00
2018-11-06T02:50:44.504Z,34.90
2018-11-06T02:53:13.687Z,36.13
2018-11-06T02:55:42.234Z,34.60
2018-11-06T02:58:10.675Z,35.03
2018-11-06T03:03:36.859Z,36.47
2018-11-06T03:06:05.589Z,35.30
2018-11-06T03:08:34.548Z,36.93
2018-11-06T03:11:02.858Z,34.97
2018-11-06T03:13:31.179Z,36.27
2018-11-06T03:15:59.480Z,35.43
2018-11-06T03:18:28.129Z,35.63
2018-11-06T03:20:56.455Z,35.90
2018-11-06T03:23:24.938Z,34.60
2018-11-06T03:28:52.603Z,35.13
2018-11-06T03:31:20.911Z,34.50
2018-11-06T03:33:49.172Z,35.37
2018-11-06T03:36:17.524Z,33.83
2018-11-06T03:38:45.853Z,34.90
2018-11-06T03:41:14.161Z,34.37
2018-11-06T03:43:42.477Z,33.57
2018-11-06T03:46:10.765Z,35.23
2018-11-06T03:48:39.061Z,34.30
2018-11-06T03:51:07.644Z,34.63
2018-11-06T03:53:36.134Z,34.07
2018-11-06T03:56:04.728Z,32.00
2018-11-06T03:58:33.013Z,32.87
2018-11-06T04:01:01.326Z,31.83
2018-11-06T04:03:29.639Z,32.07
2018-11-06T04:05:57.967Z,30.63
2018-11-06T04:08:26.249Z,32.40
2018-11-06T04:10:54.543Z,32.67
2018-11-06T04:13:22.824Z,30.83
2018-11-06T04:15:51.154Z,31.27
2018-11-06T04:18:19.476Z,31.23
2018-11-06T04:20:47.843Z,31.20
2018-11-06T04:23:16.186Z,31.50
2018-11-06T04:25:50.122Z,30.13
2018-11-06T04:28:18.410Z,30.67
2018-11-06T04:30:46.754Z,31.70
2018-11-06T04:33:15.418Z,31.27
2018-11-06T04:35:43.732Z,30.40
2018-11-06T04:38:12.039Z,29.73
2018-11-06T04:40:40.294Z,31.37
2018-11-06T04:43:08.594Z,31.03
2018-11-06T04:45:36.916Z,29.77
2018-11-06T04:48:05.647Z,31.73
2018-11-06T04:50:33.929Z,30.67
2018-11-06T04:53:02.248Z,30.07
2018-11-06T04:55:30.530Z,29.50
2018-11-06T04:57:58.881Z,28.63
2018-11-06T05:00:27.152Z,29.07
2018-11-06T05:02:55.446Z,29.77
2018-11-06T05:05:23.757Z,28.97
2018-11-06T05:07:52.029Z,28.43
2018-11-06T05:16:07.340Z,28.80
2018-11-06T05:18:35.910Z,27.80
2018-11-06T05:21:04.714Z,28.00
2018-11-06T05:23:33.033Z,28.77
2018-11-06T05:26:01.355Z,28.97
2018-11-06T05:28:29.683Z,27.67
2018-11-06T05:30:57.964Z,27.60
2018-11-06T05:33:26.520Z,28.03
2018-11-06T05:35:54.880Z,26.37
2018-11-06T05:38:23.488Z,26.63
2018-11-06T05:40:54.651Z,27.13
2018-11-06T05:43:23.168Z,27.07
2018-11-06T05:45:52.615Z,26.50
2018-11-06T05:48:21.072Z,26.97
2018-11-06T05:50:49.640Z,27.33
2018-11-06T05:53:18.438Z,27.67
2018-11-06T05:55:47.190Z,26.90
2018-11-06T05:58:15.474Z,27.00
2018-11-06T06:00:43.776Z,26.63
2018-11-06T06:03:12.115Z,27.27
2018-11-06T06:05:40.805Z,27.53
2018-11-06T06:08:09.113Z,27.03
2018-11-06T06:10:37.382Z,24.87
2018-11-06T06:13:06.190Z,25.93
2018-11-06T06:15:35.220Z,25.63
2018-11-06T06:18:03.533Z,25.93
2018-11-06T06:20:31.842Z,26.50
2018-11-06T06:23:00.213Z,26.13
2018-11-06T06:25:28.517Z,26.10
2018-11-06T06:27:56.877Z,24.47
2018-11-06T06:30:25.233Z,25.53
2018-11-06T06:32:53.582Z,25.13
2018-11-06T06:35:21.906Z,25.73
2018-11-06T06:37:51.922Z,25.37
2018-11-06T06:40:20.236Z,26.13
2018-11-06T06:42:48.518Z,25.30
2018-11-06T06:45:18.058Z,25.07
2018-11-06T06:47:46.402Z,25.63
2018-11-06T06:50:16.009Z,25.93
2018-11-06T06:52:44.946Z,25.23
2018-11-06T06:55:14.195Z,25.60
2018-11-06T06:57:43.640Z,26.43
2018-11-06T07:00:18.504Z,25.13
2018-11-06T07:02:47.515Z,24.20
2018-11-06T07:05:18.003Z,25.93
2018-11-06T07:07:46.339Z,24.47
2018-11-06T07:10:16.024Z,24.30
2018-11-06T07:12:45.148Z,23.30
2018-11-06T07:15:15.866Z,24.07
2018-11-06T07:17:45.469Z,23.87
2018-11-06T07:20:15.470Z,23.77
2018-11-06T07:22:43.859Z,23.10
2018-11-06T07:25:13.060Z,21.87
2018-11-06T07:27:42.720Z,22.47
2018-11-06T07:30:15.271Z,23.00
2018-11-06T07:32:44.133Z,22.27
2018-11-06T07:35:13.217Z,21.40
2018-11-06T07:37:42.118Z,22.43
2018-11-06T07:40:11.957Z,21.50
2018-11-06T07:42:40.405Z,21.60
2018-11-06T07:45:11.203Z,21.87
2018-11-06T07:47:39.552Z,21.33
2018-11-06T07:50:09.005Z,21.57
2018-11-06T07:52:38.068Z,21.17
2018-11-06T07:55:08.144Z,20.73
2018-11-06T07:57:36.499Z,21.57
2018-11-06T08:00:07.439Z,20.83
2018-11-06T08:02:35.761Z,21.47
2018-11-06T08:05:05.607Z,21.13
2018-11-06T08:07:34.018Z,20.43
2018-11-06T08:10:02.682Z,19.53
2018-11-06T08:12:31.040Z,20.47
2018-11-06T08:15:00.653Z,19.73
2018-11-06T08:17:29.165Z,18.77
2018-11-06T08:19:57.847Z,19.80
2018-11-06T08:22:26.201Z,19.63
2018-11-06T08:24:54.646Z,19.10
2018-11-06T08:27:23.032Z,18.63
2018-11-06T08:29:51.491Z,19.17
2018-11-06T08:32:21.033Z,19.37
2018-11-06T08:34:49.079Z,18.43
2018-11-06T08:37:17.404Z,18.90
2018-11-06T08:39:45.853Z,18.63
2018-11-06T08:42:14.299Z,17.83
2018-11-06T08:44:42.847Z,18.17
2018-11-06T08:47:11.719Z,17.90
2018-11-06T08:49:40.179Z,17.70
2018-11-06T08:52:08.858Z,18.77
2018-11-06T08:54:37.293Z,18.77
2018-11-06T08:57:06.413Z,18.90
2018-11-06T08:59:34.792Z,17.93
2018-11-06T09:02:03.551Z,18.43
2018-11-06T09:04:31.955Z,29.03
2018-11-06T09:07:01.357Z,19.67
2018-11-06T09:09:30.754Z,18.40
2018-11-06T09:11:59.186Z,18.27
2018-11-06T09:14:27.553Z,18.00
2018-11-06T09:16:56.175Z,18.13
2018-11-06T09:19:24.749Z,17.33
2018-11-06T09:21:54.038Z,17.33
2018-11-06T09:24:22.493Z,18.03
2018-11-06T09:26:50.902Z,17.60
2018-11-06T09:29:19.270Z,17.53
2018-11-06T09:31:47.739Z,16.50
2018-11-06T09:34:16.110Z,16.73
2018-11-06T09:36:46.074Z,16.70
2018-11-06T09:39:14.434Z,17.17
2018-11-06T09:41:43.049Z,16.50
2018-11-06T09:44:11.467Z,16.20
2018-11-06T09:46:40.923Z,14.97
2018-11-06T09:49:09.225Z,15.60
2018-11-06T09:51:38.740Z,15.72
2018-11-06T09:54:07.065Z,16.30
2018-11-06T09:56:37.982Z,16.15
2018-11-06T09:59:06.385Z,17.40
2018-11-06T10:01:35.385Z,15.25
2018-11-06T10:04:03.784Z,14.43
2018-11-06T10:06:33.033Z,14.95
2018-11-06T10:09:02.315Z,13.88
2018-11-06T10:11:31.369Z,13.53
2018-11-06T10:14:01.227Z,13.85
2018-11-06T10:16:30.938Z,14.28
2018-11-06T10:19:00.127Z,13.05
2018-11-06T10:21:29.137Z,12.50
2018-11-06T10:23:58.147Z,13.35
2018-11-06T10:26:27.065Z,13.10
2018-11-06T10:28:56.139Z,12.90
2018-11-06T10:31:25.137Z,13.45
2018-11-06T10:33:54.212Z,13.48
2018-11-06T10:36:23.159Z,13.45
2018-11-06T10:38:52.236Z,13.32
2018-11-06T10:41:21.215Z,13.30
2018-11-06T10:43:55.142Z,13.68
2018-11-06T10:46:24.052Z,13.32
2018-11-06T10:48:53.021Z,13.10
2018-11-06T10:51:21.935Z,13.85
2018-11-06T10:53:50.884Z,14.00
2018-11-06T10:56:19.904Z,13.08
2018-11-06T10:58:49.040Z,11.83
2018-11-06T11:01:23.438Z,11.60
2018-11-06T11:03:57.656Z,11.22
2018-11-06T11:06:26.782Z,11.22
2018-11-06T11:08:55.740Z,11.40
2018-11-06T11:11:24.841Z,11.40
2018-11-06T11:13:53.775Z,13.60
2018-11-06T11:16:22.789Z,13.85
2018-11-06T11:18:51.723Z,12.25
2018-11-06T11:21:20.777Z,11.28
2018-11-06T11:23:49.764Z,12.47
2018-11-06T11:26:18.661Z,12.20
2018-11-06T11:28:47.585Z,12.45
2018-11-06T11:31:16.504Z,12.63
2018-11-06T11:33:45.498Z,12.37
2018-11-06T11:36:14.464Z,11.78
2018-11-06T11:38:43.364Z,12.30
2018-11-06T11:41:12.335Z,11.97
2018-11-06T11:43:41.263Z,12.40
2018-11-06T11:46:10.152Z,11.78
2018-11-06T11:48:39.432Z,12.00
2018-11-06T11:51:08.387Z,12.25
2018-11-06T11:53:37.313Z,11.22
2018-11-06T11:56:06.157Z,11.63
2018-11-06T11:58:35.633Z,11.00
2018-11-06T12:01:04.819Z,19.45
2018-11-06T12:03:33.744Z,10.72
2018-11-06T12:06:02.594Z,9.60
2018-11-06T12:08:31.665Z,15.95
2018-11-06T12:11:00.708Z,9.18
2018-11-06T12:13:29.604Z,8.73
2018-11-06T12:16:04.123Z,7.85
2018-11-06T12:18:33.050Z,7.67
2018-11-06T12:21:01.996Z,8.23
2018-11-06T12:23:30.987Z,7.15
2018-11-06T12:25:59.927Z,8.18
2018-11-06T12:28:28.823Z,8.15
2018-11-06T12:30:57.735Z,8.55
2018-11-06T12:33:27.889Z,9.05
2018-11-06T12:35:56.881Z,9.15
2018-11-06T12:38:25.830Z,13.15
2018-11-06T12:40:54.895Z,9.35
2018-11-06T12:43:23.942Z,8.58
2018-11-06T12:45:53.080Z,8.45
2018-11-06T12:48:21.947Z,8.13
2018-11-06T12:50:50.863Z,11.18
2018-11-06T12:53:19.777Z,11.43
2018-11-06T12:55:49.069Z,7.50
2018-11-06T12:58:18.050Z,7.97
2018-11-06T13:00:46.987Z,7.72
2018-11-06T13:03:16.007Z,8.20
2018-11-06T13:05:45.177Z,10.03
2018-11-06T13:08:14.099Z,7.10
2018-11-06T13:10:42.964Z,7.67
2018-11-06T13:13:11.819Z,7.80
2018-11-06T13:15:40.792Z,7.25
2018-11-06T13:18:09.833Z,7.25
2018-11-06T13:20:38.804Z,7.80
2018-11-06T13:23:08.015Z,7.17
2018-11-06T13:25:36.910Z,7.58
2018-11-06T13:28:06.291Z,7.67
2018-11-06T13:30:35.173Z,7.55
2018-11-06T13:33:04.253Z,7.55
2018-11-06T13:35:33.108Z,7.28
2018-11-06T13:38:01.953Z,7.47
2018-11-06T13:40:31.149Z,6.55
2018-11-06T13:43:00.131Z,7.58
2018-11-06T13:45:29.281Z,7.20
2018-11-06T13:47:58.273Z,7.12
2018-11-06T13:50:27.274Z,6.72
2018-11-06T13:52:57.880Z,6.40
2018-11-06T13:55:26.795Z,6.90
2018-11-06T13:57:55.771Z,6.03
2018-11-06T14:00:24.713Z,5.62
2018-11-06T14:02:53.669Z,6.10
2018-11-06T14:05:22.701Z,6.00
2018-11-06T14:07:51.751Z,6.00
2018-11-06T14:10:20.791Z,5.80
2018-11-06T14:12:49.758Z,6.28
2018-11-06T14:18:15.080Z,6.00
2018-11-06T14:20:43.998Z,6.05
2018-11-06T14:23:12.986Z,5.90
2018-11-06T14:25:41.932Z,6.62
2018-11-06T14:28:10.863Z,6.33
2018-11-06T14:30:39.868Z,6.58
2018-11-06T14:33:08.879Z,6.78
2018-11-06T14:35:37.825Z,14.93
2018-11-06T14:38:07.012Z,8.63
2018-11-06T14:43:29.758Z,6.05
2018-11-06T14:45:58.669Z,13.85
2018-11-06T14:48:27.898Z,18.32
2018-11-06T14:50:56.982Z,7.85
2018-11-06T14:53:25.947Z,7.87
2018-11-06T14:55:54.888Z,8.30
2018-11-06T14:58:24.005Z,8.55
2018-11-06T15:00:52.964Z,8.58
2018-11-06T15:03:21.906Z,8.30
2018-11-06T15:05:50.944Z,9.00
2018-11-06T15:08:19.949Z,8.35
2018-11-06T15:10:48.936Z,9.40
2018-11-06T15:13:18.066Z,9.15
2018-11-06T15:15:47.015Z,9.70
2018-11-06T15:18:16.081Z,9.50
2018-11-06T15:20:45.051Z,10.43
2018-11-06T15:23:14.269Z,10.65
2018-11-06T15:28:37.179Z,12.23
2018-11-06T15:31:06.158Z,12.33
2018-11-06T15:33:35.240Z,12.63
2018-11-06T15:36:04.237Z,12.45
2018-11-06T15:38:33.692Z,13.25
2018-11-06T15:41:02.862Z,13.80
2018-11-06T15:43:31.959Z,13.48
2018-11-06T15:46:01.060Z,14.30
2018-11-06T15:48:31.497Z,14.47
2018-11-06T15:53:54.445Z,14.07
2018-11-06T15:56:24.439Z,14.43
2018-11-06T15:58:54.216Z,14.95
2018-11-06T16:01:24.192Z,14.65
2018-11-06T16:03:53.153Z,14.47
2018-11-06T16:06:22.314Z,14.45
2018-11-06T16:08:51.358Z,14.53
2018-11-06T16:11:20.349Z,14.60
2018-11-06T16:13:49.348Z,14.13
2018-11-06T16:16:18.347Z,14.25
2018-11-06T16:18:47.481Z,14.98
2018-11-06T16:21:16.427Z,13.83
2018-11-06T16:23:45.462Z,14.03
2018-11-06T16:26:14.486Z,13.45
2018-11-06T16:28:43.517Z,13.20
2018-11-06T16:31:12.611Z,12.28
2018-11-06T16:33:41.619Z,12.47
2018-11-06T16:36:14.646Z,12.45
2018-11-06T16:38:43.635Z,12.45
2018-11-06T16:41:12.646Z,12.43
2018-11-06T16:43:41.633Z,13.03
2018-11-06T16:46:10.594Z,11.60
2018-11-06T16:48:39.559Z,12.60
2018-11-06T16:51:08.611Z,12.18
2018-11-06T16:53:37.681Z,12.35
2018-11-06T16:56:07.495Z,12.25
2018-11-06T16:58:36.436Z,11.50
2018-11-06T17:01:05.549Z,12.40
2018-11-06T17:03:34.635Z,12.10
2018-11-06T17:06:03.859Z,12.90
2018-11-06T17:08:32.957Z,11.97
2018-11-06T17:11:01.864Z,12.43
2018-11-06T17:13:30.833Z,12.40
2018-11-06T17:15:59.905Z,13.20
2018-11-06T17:18:28.843Z,12.23
2018-11-06T17:20:57.761Z,12.28
2018-11-06T17:23:26.716Z,12.88
2018-11-06T17:25:55.828Z,12.50
2018-11-06T17:28:24.778Z,11.83
2018-11-06T17:30:53.845Z,12.70
2018-11-06T17:33:22.765Z,13.48
2018-11-06T17:35:51.701Z,12.03
2018-11-06T17:38:20.672Z,12.58
2018-11-06T17:40:49.015Z,13.05
2018-11-06T17:43:18.035Z,12.28
2018-11-06T17:45:46.951Z,13.35
2018-11-06T17:48:15.951Z,12.20
2018-11-06T17:50:44.950Z,13.40
2018-11-06T17:53:13.975Z,13.15
2018-11-06T17:55:43.875Z,12.88
2018-11-06T17:58:12.475Z,12.60
2018-11-06T18:00:41.592Z,12.58
2018-11-06T18:03:10.469Z,14.03
2018-11-06T18:05:38.789Z,13.65
2018-11-06T18:08:07.683Z,13.60
2018-11-06T18:10:36.637Z,13.68
2018-11-06T18:13:05.712Z,14.25
2018-11-06T18:15:34.055Z,13.80
2018-11-06T18:18:03.103Z,14.25
2018-11-06T18:20:33.956Z,13.78
2018-11-06T18:23:02.306Z,14.00
2018-11-06T18:25:31.325Z,14.20
2018-11-06T18:28:00.267Z,14.25
2018-11-06T18:30:28.638Z,14.93
2018-11-06T18:32:57.736Z,14.55
2018-11-06T18:35:26.678Z,14.20
2018-11-06T18:37:55.139Z,14.75
2018-11-06T18:40:24.082Z,14.15
2018-11-06T18:45:46.313Z,14.58
2018-11-06T18:48:14.823Z,15.33
2018-11-06T18:50:44.862Z,15.45
2018-11-06T18:53:13.269Z,15.80
2018-11-06T18:55:41.734Z,15.43
2018-11-06T18:58:11.033Z,16.73
2018-11-06T19:00:39.472Z,15.90
2018-11-06T19:03:07.904Z,16.27
2018-11-06T19:05:39.638Z,15.97
2018-11-06T19:08:08.711Z,15.38
2018-11-06T19:10:37.147Z,15.30
2018-11-06T19:13:06.381Z,16.25
2018-11-06T19:15:34.789Z,16.60
2018-11-06T19:18:03.431Z,16.57
2018-11-06T19:20:33.408Z,17.10
2018-11-06T19:23:01.827Z,15.80
2018-11-06T19:25:30.358Z,16.33
2018-11-06T19:27:59.956Z,15.68
2018-11-06T19:30:29.617Z,16.32
2018-11-06T19:32:59.298Z,17.00
2018-11-06T19:35:27.767Z,16.52
2018-11-06T19:37:56.351Z,17.17
2018-11-06T19:40:26.327Z,16.57
2018-11-06T19:42:55.031Z,16.53
2018-11-06T19:45:23.555Z,17.33
2018-11-06T19:47:52.055Z,16.37
2018-11-06T19:50:20.690Z,16.37
2018-11-06T19:52:49.309Z,16.15
2018-11-06T19:55:18.692Z,16.67
2018-11-06T19:57:47.145Z,16.43
2018-11-06T20:00:18.053Z,17.60
2018-11-06T20:02:47.886Z,16.97
2018-11-06T20:05:17.157Z,16.90
2018-11-06T20:07:46.548Z,18.27
2018-11-06T20:10:16.892Z,16.73
2018-11-06T20:12:46.641Z,17.10
2018-11-06T20:15:15.879Z,17.40
2018-11-06T20:17:44.997Z,16.77
2018-11-06T20:20:19.630Z,16.42
2018-11-06T20:22:48.822Z,16.65
2018-11-06T20:25:18.143Z,17.37
2018-11-06T20:27:46.746Z,16.80
2018-11-06T20:30:17.255Z,18.80
2018-11-06T20:32:45.628Z,17.03
2018-11-06T20:35:14.448Z,18.40
2018-11-06T20:37:43.435Z,17.23
2018-11-06T20:40:14.352Z,18.57
2018-11-06T20:42:43.383Z,19.40
2018-11-06T20:45:13.269Z,17.70
2018-11-06T20:47:42.511Z,17.30
2018-11-06T20:50:12.940Z,16.67
2018-11-06T20:52:41.602Z,16.50
2018-11-06T20:55:11.265Z,17.23
2018-11-06T20:57:39.764Z,17.07
2018-11-06T21:00:15.056Z,16.60
2018-11-06T21:02:43.665Z,15.73
2018-11-06T21:05:12.603Z,16.77
2018-11-06T21:10:51.209Z,15.23
2018-11-06T21:13:19.758Z,16.73
2018-11-06T21:15:48.326Z,16.63
2018-11-06T21:18:16.720Z,15.90
2018-11-06T21:20:45.250Z,14.93
2018-11-06T21:23:13.576Z,16.60
2018-11-06T21:25:42.213Z,15.80
2018-11-06T21:28:10.608Z,15.70
2018-11-06T21:30:38.961Z,15.30
2018-11-06T21:33:07.344Z,15.63
2018-11-06T21:35:35.724Z,15.57
2018-11-06T21:38:04.125Z,15.47
2018-11-06T21:40:32.526Z,14.77
2018-11-06T21:43:00.913Z,14.07
2018-11-06T21:45:29.275Z,15.07
2018-11-06T21:47:57.916Z,13.37
2018-11-06T21:50:31.969Z,14.37
2018-11-06T21:53:00.319Z,13.27
2018-11-06T21:55:28.694Z,13.27
2018-11-06T21:57:57.104Z,13.67
2018-11-06T22:00:25.632Z,13.83
2018-11-06T22:02:54.202Z,13.13
2018-11-06T22:05:22.567Z,13.20
2018-11-06T22:07:50.998Z,13.83
2018-11-06T22:10:20.610Z,12.30
2018-11-06T22:15:48.467Z,13.37
2018-11-06T22:18:16.855Z,12.20
2018-11-06T22:20:45.255Z,12.43
2018-11-06T22:23:13.989Z,13.47
2018-11-06T22:25:42.400Z,12.60
2018-11-06T22:28:10.928Z,12.50
2018-11-06T22:30:39.357Z,12.87
2018-11-06T22:33:08.000Z,13.00
2018-11-06T22:35:36.419Z,12.30
2018-11-06T22:40:59.416Z,12.67
2018-11-06T22:43:27.806Z,12.80
2018-11-06T22:45:56.410Z,13.13
2018-11-06T22:48:34.366Z,11.97
2018-11-06T22:51:03.647Z,12.17
2018-11-06T22:53:32.098Z,13.17
2018-11-06T22:56:00.572Z,12.77
2018-11-06T22:58:28.916Z,12.30
2018-11-06T23:01:04.319Z,12.77
2018-11-06T23:03:32.983Z,12.53
2018-11-06T23:06:01.475Z,12.27
2018-11-06T23:08:29.975Z,11.87
2018-11-06T23:10:58.314Z,11.50
2018-11-06T23:13:26.800Z,12.00
2018-11-06T23:15:55.292Z,12.00
2018-11-06T23:18:23.607Z,11.97
2018-11-06T23:20:51.994Z,12.60
2018-11-06T23:23:21.931Z,12.27
2018-11-06T23:25:50.365Z,11.10
2018-11-06T23:28:18.744Z,12.13
2018-11-06T23:30:47.117Z,11.33
2018-11-06T23:33:15.480Z,11.53
2018-11-06T23:35:44.454Z,11.70
2018-11-06T23:38:13.028Z,11.07
2018-11-06T23:40:41.335Z,10.63
2018-11-06T23:43:09.726Z,11.20
2018-11-06T23:45:38.131Z,10.57
2018-11-06T23:48:06.577Z,11.17
2018-11-06T23:50:35.019Z,10.43
2018-11-06T23:53:03.404Z,10.47
2018-11-06T23:55:31.736Z,10.37
2018-11-06T23:58:00.066Z,10.50
